sensor_id;sensor_type;location;lat;lon;timestamp;pressure;altitude;pressure_sealevel;temperature;humidity
29371;BME280;16357;52.188;7.838;2022-08-25T00:01:54;101094.56;;;28.02;29.25
29371;BME280;16357;52.188;7.838;2022-08-25T00:04:21;101096.19;;;27.98;29.52
29371;BME280;16357;52.188;7.838;2022-08-25T00:06:49;101092.03;;;27.96;29.68
29371;BME280;16357;52.188;7.838;2022-08-25T00:09:18;101109.94;;;27.93;29.60
29371;BME280;16357;52.188;7.838;2022-08-25T00:11:47;101097.50;;;27.91;29.46
29371;BME280;16357;52.188;7.838;2022-08-25T00:14:24;101096.09;;;27.88;29.65
29371;BME280;16357;52.188;7.838;2022-08-25T00:16:51;101094.97;;;27.84;29.81
29371;BME280;16357;52.188;7.838;2022-08-25T00:19:25;101087.78;;;27.83;29.82
29371;BME280;16357;52.188;7.838;2022-08-25T00:21:52;101092.97;;;27.79;29.95
29371;BME280;16357;52.188;7.838;2022-08-25T00:24:19;101096.00;;;27.78;30.16
29371;BME280;16357;52.188;7.838;2022-08-25T00:26:49;101094.88;;;27.74;30.10
29371;BME280;16357;52.188;7.838;2022-08-25T00:29:17;101098.97;;;27.71;30.38
29371;BME280;16357;52.188;7.838;2022-08-25T00:31:44;101101.16;;;27.69;30.33
29371;BME280;16357;52.188;7.838;2022-08-25T00:34:17;101105.84;;;27.69;30.17
29371;BME280;16357;52.188;7.838;2022-08-25T00:36:44;101101.94;;;27.65;30.43
29371;BME280;16357;52.188;7.838;2022-08-25T00:39:13;101098.63;;;27.63;30.59
29371;BME280;16357;52.188;7.838;2022-08-25T00:41:41;101096.94;;;27.62;30.88
29371;BME280;16357;52.188;7.838;2022-08-25T00:44:11;101105.75;;;27.58;30.50
29371;BME280;16357;52.188;7.838;2022-08-25T00:46:42;101111.53;;;27.57;30.76
29371;BME280;16357;52.188;7.838;2022-08-25T00:49:16;101105.44;;;27.55;30.82
29371;BME280;16357;52.188;7.838;2022-08-25T00:52:10;101105.97;;;27.52;30.63
29371;BME280;16357;52.188;7.838;2022-08-25T00:54:42;101107.31;;;27.49;31.02
29371;BME280;16357;52.188;7.838;2022-08-25T00:57:14;101113.38;;;27.46;30.80
29371;BME280;16357;52.188;7.838;2022-08-25T00:59:42;101115.53;;;27.44;31.37
29371;BME280;16357;52.188;7.838;2022-08-25T01:02:11;101116.06;;;27.41;31.23
29371;BME280;16357;52.188;7.838;2022-08-25T01:04:40;101111.06;;;27.38;31.60
29371;BME280;16357;52.188;7.838;2022-08-25T01:07:16;101112.41;;;27.35;31.31
29371;BME280;16357;52.188;7.838;2022-08-25T01:09:45;101115.44;;;27.34;31.58
29371;BME280;16357;52.188;7.838;2022-08-25T01:12:12;101110.44;;;27.31;31.73
29371;BME280;16357;52.188;7.838;2022-08-25T01:14:39;101107.34;;;27.27;31.72
29371;BME280;16357;52.188;7.838;2022-08-25T01:17:06;101104.28;;;27.24;31.85
29371;BME280;16357;52.188;7.838;2022-08-25T01:19:32;101106.47;;;27.22;32.15
29371;BME280;16357;52.188;7.838;2022-08-25T01:21:59;101103.63;;;27.17;32.24
29371;BME280;16357;52.188;7.838;2022-08-25T01:24:36;101106.66;;;27.15;32.15
29371;BME280;16357;52.188;7.838;2022-08-25T01:27:05;101103.56;;;27.11;32.34
29371;BME280;16357;52.188;7.838;2022-08-25T01:29:32;101111.53;;;27.08;32.41
29371;BME280;16357;52.188;7.838;2022-08-25T01:32:03;101108.19;;;27.06;32.29
29371;BME280;16357;52.188;7.838;2022-08-25T01:34:33;101107.06;;;27.02;32.79
29371;BME280;16357;52.188;7.838;2022-08-25T01:37:00;101108.66;;;26.98;33.23
29371;BME280;16357;52.188;7.838;2022-08-25T01:39:29;101102.25;;;26.92;33.18
29371;BME280;16357;52.188;7.838;2022-08-25T01:44:30;101110.97;;;26.84;33.24
29371;BME280;16357;52.188;7.838;2022-08-25T01:46:57;101110.63;;;26.80;33.50
29371;BME280;16357;52.188;7.838;2022-08-25T01:49:23;101097.66;;;26.76;33.67
29371;BME280;16357;52.188;7.838;2022-08-25T01:51:54;101104.16;;;26.69;33.50
29371;BME280;16357;52.188;7.838;2022-08-25T01:54:22;101104.66;;;26.66;33.88
29371;BME280;16357;52.188;7.838;2022-08-25T01:56:48;101103.78;;;26.61;33.80
29371;BME280;16357;52.188;7.838;2022-08-25T01:59:16;101105.34;;;26.57;33.69
29371;BME280;16357;52.188;7.838;2022-08-25T02:01:50;101097.88;;;26.52;34.02
29371;BME280;16357;52.188;7.838;2022-08-25T02:04:25;101100.25;;;26.48;34.08
29371;BME280;16357;52.188;7.838;2022-08-25T02:06:52;101098.28;;;26.44;33.90
29371;BME280;16357;52.188;7.838;2022-08-25T02:09:18;101096.03;;;26.41;34.32
29371;BME280;16357;52.188;7.838;2022-08-25T02:11:46;101101.22;;;26.37;34.25
29371;BME280;16357;52.188;7.838;2022-08-25T02:14:14;101093.72;;;26.33;34.26
29371;BME280;16357;52.188;7.838;2022-08-25T02:16:44;101090.13;;;26.32;34.18
29371;BME280;16357;52.188;7.838;2022-08-25T02:19:11;101099.13;;;26.27;34.25
29371;BME280;16357;52.188;7.838;2022-08-25T02:21:38;101096.06;;;26.24;34.62
29371;BME280;16357;52.188;7.838;2022-08-25T02:24:06;101093.81;;;26.21;34.28
29371;BME280;16357;52.188;7.838;2022-08-25T02:26:33;101093.22;;;26.19;34.75
29371;BME280;16357;52.188;7.838;2022-08-25T02:28:59;101091.81;;;26.16;34.77
29371;BME280;16357;52.188;7.838;2022-08-25T02:31:26;101095.66;;;26.15;34.92
29371;BME280;16357;52.188;7.838;2022-08-25T02:33:53;101095.06;;;26.13;34.69
29371;BME280;16357;52.188;7.838;2022-08-25T02:36:20;101085.41;;;26.11;34.61
29371;BME280;16357;52.188;7.838;2022-08-25T02:38:49;101093.91;;;26.09;35.21
29371;BME280;16357;52.188;7.838;2022-08-25T02:41:19;101085.09;;;26.07;35.20
29371;BME280;16357;52.188;7.838;2022-08-25T02:43:47;101085.34;;;26.05;34.98
29371;BME280;16357;52.188;7.838;2022-08-25T02:46:16;101088.31;;;26.04;35.25
29371;BME280;16357;52.188;7.838;2022-08-25T02:48:42;101083.09;;;26.02;35.15
29371;BME280;16357;52.188;7.838;2022-08-25T02:51:10;101079.75;;;26.00;35.39
29371;BME280;16357;52.188;7.838;2022-08-25T02:53:38;101079.16;;;25.98;35.16
29371;BME280;16357;52.188;7.838;2022-08-25T02:56:09;101081.91;;;25.98;35.59
29371;BME280;16357;52.188;7.838;2022-08-25T02:58:37;101078.59;;;25.96;35.44
29371;BME280;16357;52.188;7.838;2022-08-25T03:01:04;101076.91;;;25.95;35.72
29371;BME280;16357;52.188;7.838;2022-08-25T03:03:32;101080.75;;;25.94;35.55
29371;BME280;16357;52.188;7.838;2022-08-25T03:06:07;101076.34;;;25.93;35.78
29371;BME280;16357;52.188;7.838;2022-08-25T03:08:34;101083.75;;;25.93;35.82
29371;BME280;16357;52.188;7.838;2022-08-25T03:11:02;101078.53;;;25.91;35.64
29371;BME280;16357;52.188;7.838;2022-08-25T03:13:29;101084.03;;;25.91;35.62
29371;BME280;16357;52.188;7.838;2022-08-25T03:15:55;101097.19;;;25.89;35.97
29371;BME280;16357;52.188;7.838;2022-08-25T03:18:22;101091.91;;;25.88;35.89
29371;BME280;16357;52.188;7.838;2022-08-25T03:20:49;101090.25;;;25.87;36.03
29371;BME280;16357;52.188;7.838;2022-08-25T03:23:16;101086.91;;;25.84;35.73
29371;BME280;16357;52.188;7.838;2022-08-25T03:25:43;101086.28;;;25.82;35.77
29371;BME280;16357;52.188;7.838;2022-08-25T03:28:29;101081.06;;;25.81;35.74
29371;BME280;16357;52.188;7.838;2022-08-25T03:31:01;101087.91;;;25.78;36.08
29371;BME280;16357;52.188;7.838;2022-08-25T03:33:29;101086.72;;;25.74;36.03
29371;BME280;16357;52.188;7.838;2022-08-25T03:35:56;101079.78;;;25.72;36.43
29371;BME280;16357;52.188;7.838;2022-08-25T03:38:24;101083.88;;;25.69;36.36
29371;BME280;16357;52.188;7.838;2022-08-25T03:40:51;101077.22;;;25.65;36.55
29371;BME280;16357;52.188;7.838;2022-08-25T03:43:19;101079.63;;;25.61;36.70
29371;BME280;16357;52.188;7.838;2022-08-25T03:45:46;101076.53;;;25.58;36.91
29371;BME280;16357;52.188;7.838;2022-08-25T03:48:14;101072.88;;;25.52;36.60
29371;BME280;16357;52.188;7.838;2022-08-25T03:50:50;101068.94;;;25.48;36.41
29371;BME280;16357;52.188;7.838;2022-08-25T03:53:18;101067.44;;;25.40;36.79
29371;BME280;16357;52.188;7.838;2022-08-25T03:55:46;101067.34;;;25.35;36.67
29371;BME280;16357;52.188;7.838;2022-08-25T03:58:12;101056.75;;;25.27;36.93
29371;BME280;16357;52.188;7.838;2022-08-25T04:00:39;101053.09;;;25.22;37.06
29371;BME280;16357;52.188;7.838;2022-08-25T04:03:06;101054.91;;;25.16;37.03
29371;BME280;16357;52.188;7.838;2022-08-25T04:05:33;101045.44;;;25.12;37.28
29371;BME280;16357;52.188;7.838;2022-08-25T04:07:59;101048.13;;;25.07;37.57
29371;BME280;16357;52.188;7.838;2022-08-25T04:10:27;101044.19;;;25.03;37.71
29371;BME280;16357;52.188;7.838;2022-08-25T04:12:54;101049.34;;;24.99;37.42
29371;BME280;16357;52.188;7.838;2022-08-25T04:15:21;101052.56;;;24.96;38.01
29371;BME280;16357;52.188;7.838;2022-08-25T04:17:53;101045.09;;;24.91;38.20
29371;BME280;16357;52.188;7.838;2022-08-25T04:20:20;101046.91;;;24.86;38.30
29371;BME280;16357;52.188;7.838;2022-08-25T04:22:47;101042.72;;;24.83;38.48
29371;BME280;16357;52.188;7.838;2022-08-25T04:25:13;101047.84;;;24.80;38.53
29371;BME280;16357;52.188;7.838;2022-08-25T04:27:40;101053.00;;;24.76;38.48
29371;BME280;16357;52.188;7.838;2022-08-25T04:30:07;101059.59;;;24.75;38.70
29371;BME280;16357;52.188;7.838;2022-08-25T04:32:35;101057.31;;;24.72;38.82
29371;BME280;16357;52.188;7.838;2022-08-25T04:35:03;101058.63;;;24.69;39.13
29371;BME280;16357;52.188;7.838;2022-08-25T04:37:30;101051.47;;;24.68;39.31
29371;BME280;16357;52.188;7.838;2022-08-25T04:39:57;101047.91;;;24.68;39.24
29371;BME280;16357;52.188;7.838;2022-08-25T04:42:23;101048.97;;;24.67;39.57
29371;BME280;16357;52.188;7.838;2022-08-25T04:44:51;101046.22;;;24.67;39.55
29371;BME280;16357;52.188;7.838;2022-08-25T04:47:25;101048.97;;;24.67;38.99
29371;BME280;16357;52.188;7.838;2022-08-25T04:49:54;101049.22;;;24.65;39.64
29371;BME280;16357;52.188;7.838;2022-08-25T04:52:27;101042.91;;;24.65;39.19
29371;BME280;16357;52.188;7.838;2022-08-25T04:54:54;101043.38;;;24.62;39.48
29371;BME280;16357;52.188;7.838;2022-08-25T04:57:21;101044.44;;;24.61;39.63
29371;BME280;16357;52.188;7.838;2022-08-25T04:59:48;101041.13;;;24.59;39.84
29371;BME280;16357;52.188;7.838;2022-08-25T05:02:15;101040.53;;;24.57;39.51
29371;BME280;16357;52.188;7.838;2022-08-25T05:04:41;101038.03;;;24.55;39.38
29371;BME280;16357;52.188;7.838;2022-08-25T05:07:08;101041.00;;;24.53;39.69
29371;BME280;16357;52.188;7.838;2022-08-25T05:09:34;101041.00;;;24.53;39.67
29371;BME280;16357;52.188;7.838;2022-08-25T05:12:02;101040.19;;;24.53;39.90
29371;BME280;16357;52.188;7.838;2022-08-25T05:14:31;101038.53;;;24.52;39.98
29371;BME280;16357;52.188;7.838;2022-08-25T05:16:57;101036.59;;;24.52;39.68
29371;BME280;16357;52.188;7.838;2022-08-25T05:19:25;101035.78;;;24.52;39.68
29371;BME280;16357;52.188;7.838;2022-08-25T05:21:52;101041.25;;;24.52;40.05
29371;BME280;16357;52.188;7.838;2022-08-25T05:24:19;101034.94;;;24.51;40.23
29371;BME280;16357;52.188;7.838;2022-08-25T05:26:47;101033.88;;;24.52;39.96
29371;BME280;16357;52.188;7.838;2022-08-25T05:29:13;101040.44;;;24.51;40.30
29371;BME280;16357;52.188;7.838;2022-08-25T05:31:40;101039.34;;;24.52;40.58
29371;BME280;16357;52.188;7.838;2022-08-25T05:34:13;101046.50;;;24.53;40.12
29371;BME280;16357;52.188;7.838;2022-08-25T05:36:40;101052.56;;;24.56;40.19
29371;BME280;16357;52.188;7.838;2022-08-25T05:39:09;101044.94;;;24.58;40.67
29371;BME280;16357;52.188;7.838;2022-08-25T05:41:36;101045.53;;;24.60;40.36
29371;BME280;16357;52.188;7.838;2022-08-25T05:44:03;101049.72;;;24.62;40.52
29371;BME280;16357;52.188;7.838;2022-08-25T05:46:29;101051.13;;;24.65;40.51
29371;BME280;16357;52.188;7.838;2022-08-25T05:48:57;101041.81;;;24.66;40.38
29371;BME280;16357;52.188;7.838;2022-08-25T05:51:24;101050.38;;;24.69;40.55
29371;BME280;16357;52.188;7.838;2022-08-25T05:53:51;101049.31;;;24.70;40.53
29371;BME280;16357;52.188;7.838;2022-08-25T05:56:18;101054.31;;;24.73;40.48
29371;BME280;16357;52.188;7.838;2022-08-25T05:58:45;101054.09;;;24.75;40.47
29371;BME280;16357;52.188;7.838;2022-08-25T06:01:24;101053.59;;;24.78;40.48
29371;BME280;16357;52.188;7.838;2022-08-25T06:04:11;101045.94;;;24.80;40.62
29371;BME280;16357;52.188;7.838;2022-08-25T06:06:38;101045.47;;;24.83;40.80
29371;BME280;16357;52.188;7.838;2022-08-25T06:09:08;101042.25;;;24.86;40.46
29371;BME280;16357;52.188;7.838;2022-08-25T06:11:37;101023.63;;;24.88;40.51
29371;BME280;16357;52.188;7.838;2022-08-25T06:14:11;101031.94;;;24.93;40.33
29371;BME280;16357;52.188;7.838;2022-08-25T06:16:38;101026.22;;;24.95;40.65
29371;BME280;16357;52.188;7.838;2022-08-25T06:19:07;101028.47;;;24.98;40.81
29371;BME280;16357;52.188;7.838;2022-08-25T06:21:34;101022.47;;;25.01;41.08
29371;BME280;16357;52.188;7.838;2022-08-25T06:24:02;101035.72;;;25.04;40.79
29371;BME280;16357;52.188;7.838;2022-08-25T06:26:29;101036.66;;;25.10;41.21
29371;BME280;16357;52.188;7.838;2022-08-25T06:28:56;101036.97;;;25.13;40.91
29371;BME280;16357;52.188;7.838;2022-08-25T06:31:22;101039.63;;;25.20;40.77
29371;BME280;16357;52.188;7.838;2022-08-25T06:33:49;101035.06;;;25.26;41.10
29371;BME280;16357;52.188;7.838;2022-08-25T06:36:16;101024.72;;;25.33;40.64
29371;BME280;16357;52.188;7.838;2022-08-25T06:38:45;101031.16;;;25.38;41.01
29371;BME280;16357;52.188;7.838;2022-08-25T06:41:11;101034.34;;;25.47;41.05
29371;BME280;16357;52.188;7.838;2022-08-25T06:43:40;101037.75;;;25.54;40.72
29371;BME280;16357;52.188;7.838;2022-08-25T06:46:16;101027.75;;;25.65;39.41
29371;BME280;16357;52.188;7.838;2022-08-25T06:48:43;101031.75;;;25.74;40.74
29371;BME280;16357;52.188;7.838;2022-08-25T06:51:12;101036.63;;;25.84;41.08
29371;BME280;16357;52.188;7.838;2022-08-25T06:53:40;101036.78;;;25.94;41.10
29371;BME280;16357;52.188;7.838;2022-08-25T06:56:07;101033.91;;;26.06;41.21
29371;BME280;16357;52.188;7.838;2022-08-25T06:58:34;101038.50;;;26.17;41.18
29371;BME280;16357;52.188;7.838;2022-08-25T07:01:24;101039.53;;;26.33;40.73
29371;BME280;16357;52.188;7.838;2022-08-25T07:03:54;101038.31;;;26.46;40.48
29371;BME280;16357;52.188;7.838;2022-08-25T07:06:24;101042.91;;;26.57;40.17
29371;BME280;16357;52.188;7.838;2022-08-25T07:08:51;101044.69;;;26.68;40.18
29371;BME280;16357;52.188;7.838;2022-08-25T07:11:18;101045.66;;;26.79;40.09
29371;BME280;16357;52.188;7.838;2022-08-25T07:13:47;101049.34;;;26.90;39.77
29371;BME280;16357;52.188;7.838;2022-08-25T07:16:14;101039.56;;;26.99;39.64
29371;BME280;16357;52.188;7.838;2022-08-25T07:18:41;101035.50;;;27.07;39.77
29371;BME280;16357;52.188;7.838;2022-08-25T07:21:10;101039.44;;;27.16;39.64
29371;BME280;16357;52.188;7.838;2022-08-25T07:23:38;101047.03;;;27.26;39.83
29371;BME280;16357;52.188;7.838;2022-08-25T07:26:18;101039.41;;;27.38;39.81
29371;BME280;16357;52.188;7.838;2022-08-25T07:29:07;101048.34;;;27.50;39.73
29371;BME280;16357;52.188;7.838;2022-08-25T07:31:34;101050.38;;;27.60;39.21
29371;BME280;16357;52.188;7.838;2022-08-25T07:34:03;101047.41;;;27.72;39.35
29371;BME280;16357;52.188;7.838;2022-08-25T07:36:48;101044.53;;;27.84;39.12
29371;BME280;16357;52.188;7.838;2022-08-25T07:39:14;101047.91;;;27.96;39.10
29371;BME280;16357;52.188;7.838;2022-08-25T07:41:47;101044.41;;;28.06;39.00
29371;BME280;16357;52.188;7.838;2022-08-25T07:44:17;101047.50;;;28.19;38.85
29371;BME280;16357;52.188;7.838;2022-08-25T07:46:44;101045.63;;;28.30;38.76
29371;BME280;16357;52.188;7.838;2022-08-25T07:49:11;101055.09;;;28.39;38.49
29371;BME280;16357;52.188;7.838;2022-08-25T07:51:42;101048.53;;;28.51;38.33
29371;BME280;16357;52.188;7.838;2022-08-25T07:54:29;101049.97;;;28.63;38.20
29371;BME280;16357;52.188;7.838;2022-08-25T07:57:00;101049.19;;;28.73;37.98
29371;BME280;16357;52.188;7.838;2022-08-25T07:59:26;101056.41;;;28.84;37.96
29371;BME280;16357;52.188;7.838;2022-08-25T08:01:53;101053.38;;;28.91;37.70
29371;BME280;16357;52.188;7.838;2022-08-25T08:04:19;101057.84;;;28.97;37.65
29371;BME280;16357;52.188;7.838;2022-08-25T08:06:46;101055.38;;;29.06;37.45
29371;BME280;16357;52.188;7.838;2022-08-25T08:09:12;101053.22;;;29.13;37.11
29371;BME280;16357;52.188;7.838;2022-08-25T08:11:39;101042.72;;;29.20;37.17
29371;BME280;16357;52.188;7.838;2022-08-25T08:14:19;101044.94;;;29.28;37.39
29371;BME280;16357;52.188;7.838;2022-08-25T08:16:46;101033.59;;;29.35;37.13
29371;BME280;16357;52.188;7.838;2022-08-25T08:19:13;101038.59;;;29.43;37.07
29371;BME280;16357;52.188;7.838;2022-08-25T08:21:40;101035.56;;;29.50;36.83
29371;BME280;16357;52.188;7.838;2022-08-25T08:24:07;101034.19;;;29.58;36.75
29371;BME280;16357;52.188;7.838;2022-08-25T08:26:54;101031.16;;;29.64;36.76
29371;BME280;16357;52.188;7.838;2022-08-25T08:29:24;101026.19;;;29.71;37.14
29371;BME280;16357;52.188;7.838;2022-08-25T08:31:51;101031.44;;;29.78;36.75
29371;BME280;16357;52.188;7.838;2022-08-25T08:34:18;101025.63;;;29.85;36.57
29371;BME280;16357;52.188;7.838;2022-08-25T08:36:50;101018.13;;;29.90;36.42
29371;BME280;16357;52.188;7.838;2022-08-25T08:39:17;101018.69;;;29.97;36.19
29371;BME280;16357;52.188;7.838;2022-08-25T08:47:22;101011.44;;;30.17;36.38
29371;BME280;16357;52.188;7.838;2022-08-25T08:50:04;101012.00;;;30.24;35.84
29371;BME280;16357;52.188;7.838;2022-08-25T08:52:52;101008.66;;;30.32;35.57
29371;BME280;16357;52.188;7.838;2022-08-25T08:55:26;101012.22;;;30.38;35.55
29371;BME280;16357;52.188;7.838;2022-08-25T08:57:57;100995.59;;;30.43;35.23
29371;BME280;16357;52.188;7.838;2022-08-25T09:00:25;101000.28;;;30.48;35.43
29371;BME280;16357;52.188;7.838;2022-08-25T09:02:55;100996.66;;;30.52;35.18
29371;BME280;16357;52.188;7.838;2022-08-25T09:05:26;100991.63;;;30.59;35.69
29371;BME280;16357;52.188;7.838;2022-08-25T09:08:09;100990.50;;;30.66;35.12
29371;BME280;16357;52.188;7.838;2022-08-25T09:17:00;100989.31;;;30.87;34.69
29371;BME280;16357;52.188;7.838;2022-08-25T09:19:43;100985.38;;;30.93;34.49
29371;BME280;16357;52.188;7.838;2022-08-25T09:25:22;100967.84;;;31.08;34.78
29371;BME280;16357;52.188;7.838;2022-08-25T09:30:57;100962.72;;;31.25;34.08
29371;BME280;16357;52.188;7.838;2022-08-25T09:33:26;100966.28;;;31.31;34.18
29371;BME280;16357;52.188;7.838;2022-08-25T09:35:54;100967.03;;;31.37;34.05
29371;BME280;16357;52.188;7.838;2022-08-25T09:38:24;100959.53;;;31.42;33.77
29371;BME280;16357;52.188;7.838;2022-08-25T09:40:56;100959.72;;;31.51;34.20
29371;BME280;16357;52.188;7.838;2022-08-25T09:43:30;100969.66;;;31.57;34.06
29371;BME280;16357;52.188;7.838;2022-08-25T09:46:25;100952.41;;;31.65;33.62
29371;BME280;16357;52.188;7.838;2022-08-25T09:48:56;100953.97;;;31.71;33.32
29371;BME280;16357;52.188;7.838;2022-08-25T09:51:34;100949.44;;;31.81;33.63
29371;BME280;16357;52.188;7.838;2022-08-25T09:57:03;100926.03;;;31.92;33.12
29371;BME280;16357;52.188;7.838;2022-08-25T09:59:35;100925.47;;;31.95;32.71
29371;BME280;16357;52.188;7.838;2022-08-25T10:02:19;100917.34;;;31.99;32.23
29371;BME280;16357;52.188;7.838;2022-08-25T10:04:47;100923.97;;;32.03;32.49
29371;BME280;16357;52.188;7.838;2022-08-25T10:07:38;100927.22;;;32.10;32.79
29371;BME280;16357;52.188;7.838;2022-08-25T10:10:26;100919.34;;;32.17;32.37
29371;BME280;16357;52.188;7.838;2022-08-25T10:12:58;100911.25;;;32.21;32.08
29371;BME280;16357;52.188;7.838;2022-08-25T10:15:33;100904.78;;;32.25;32.32
29371;BME280;16357;52.188;7.838;2022-08-25T10:18:19;100908.94;;;32.28;32.52
29371;BME280;16357;52.188;7.838;2022-08-25T10:23:36;100901.66;;;32.32;32.08
29371;BME280;16357;52.188;7.838;2022-08-25T10:26:10;100907.16;;;32.37;31.89
29371;BME280;16357;52.188;7.838;2022-08-25T10:31:42;100888.94;;;32.50;31.84
29371;BME280;16357;52.188;7.838;2022-08-25T10:36:57;100871.81;;;32.62;31.39
29371;BME280;16357;52.188;7.838;2022-08-25T10:42:35;100864.97;;;32.73;31.96
29371;BME280;16357;52.188;7.838;2022-08-25T10:45:22;100855.13;;;32.80;31.81
29371;BME280;16357;52.188;7.838;2022-08-25T10:51:13;100841.56;;;32.93;31.74
29371;BME280;16357;52.188;7.838;2022-08-25T10:56:37;100836.91;;;33.07;31.25
29371;BME280;16357;52.188;7.838;2022-08-25T11:04:54;100828.72;;;33.30;30.71
29371;BME280;16357;52.188;7.838;2022-08-25T11:07:32;100829.94;;;33.37;30.47
29371;BME280;16357;52.188;7.838;2022-08-25T11:10:05;100829.03;;;33.42;30.54
29371;BME280;16357;52.188;7.838;2022-08-25T11:12:45;100825.81;;;33.49;30.87
29371;BME280;16357;52.188;7.838;2022-08-25T11:15:19;100818.22;;;33.54;30.65
29371;BME280;16357;52.188;7.838;2022-08-25T11:18:02;100816.69;;;33.62;30.50
29371;BME280;16357;52.188;7.838;2022-08-25T11:20:49;100823.50;;;33.70;29.97
29371;BME280;16357;52.188;7.838;2022-08-25T11:23:30;100825.06;;;33.76;30.13
29371;BME280;16357;52.188;7.838;2022-08-25T11:26:12;100830.47;;;33.81;30.07
29371;BME280;16357;52.188;7.838;2022-08-25T11:28:55;100822.88;;;33.86;30.21
29371;BME280;16357;52.188;7.838;2022-08-25T11:31:25;100811.41;;;33.88;29.90
29371;BME280;16357;52.188;7.838;2022-08-25T11:33:54;100815.53;;;33.91;29.78
29371;BME280;16357;52.188;7.838;2022-08-25T11:36:32;100821.31;;;33.94;29.64
29371;BME280;16357;52.188;7.838;2022-08-25T11:39:25;100816.88;;;33.93;29.51
29371;BME280;16357;52.188;7.838;2022-08-25T11:42:15;100815.22;;;33.92;29.78
29371;BME280;16357;52.188;7.838;2022-08-25T11:53:21;100824.19;;;34.03;29.97
29371;BME280;16357;52.188;7.838;2022-08-25T11:55:54;100822.72;;;34.05;29.43
29371;BME280;16357;52.188;7.838;2022-08-25T11:58:44;100809.34;;;34.07;29.71
29371;BME280;16357;52.188;7.838;2022-08-25T12:04:37;100811.50;;;34.11;29.60
29371;BME280;16357;52.188;7.838;2022-08-25T12:07:20;100811.38;;;34.16;29.26
29371;BME280;16357;52.188;7.838;2022-08-25T12:18:11;100798.38;;;34.47;28.82
29371;BME280;16357;52.188;7.838;2022-08-25T12:29:10;100789.25;;;34.78;28.34
29371;BME280;16357;52.188;7.838;2022-08-25T12:31:57;100791.91;;;34.83;28.07
29371;BME280;16357;52.188;7.838;2022-08-25T12:34:49;100779.81;;;34.88;28.37
29371;BME280;16357;52.188;7.838;2022-08-25T12:37:21;100784.94;;;34.94;28.25
29371;BME280;16357;52.188;7.838;2022-08-25T12:42:31;100774.00;;;35.07;28.00
29371;BME280;16357;52.188;7.838;2022-08-25T12:47:35;100767.38;;;35.25;27.44
29371;BME280;16357;52.188;7.838;2022-08-25T12:50:44;100763.19;;;35.36;27.94
29371;BME280;16357;52.188;7.838;2022-08-25T12:53:29;100767.81;;;35.50;27.37
29371;BME280;16357;52.188;7.838;2022-08-25T12:56:02;100774.25;;;35.59;27.42
29371;BME280;16357;52.188;7.838;2022-08-25T13:01:57;100773.78;;;35.74;27.24
29371;BME280;16357;52.188;7.838;2022-08-25T13:07:54;100766.59;;;35.82;26.52
29371;BME280;16357;52.188;7.838;2022-08-25T13:11:04;100764.59;;;35.82;27.10
29371;BME280;16357;52.188;7.838;2022-08-25T13:13:55;100761.16;;;35.86;26.85
29371;BME280;16357;52.188;7.838;2022-08-25T13:16:27;100755.56;;;35.86;26.46
29371;BME280;16357;52.188;7.838;2022-08-25T13:18:56;100753.59;;;35.86;25.82
29371;BME280;16357;52.188;7.838;2022-08-25T13:21:40;100746.06;;;35.87;26.12
29371;BME280;16357;52.188;7.838;2022-08-25T13:24:10;100741.97;;;35.84;26.34
29371;BME280;16357;52.188;7.838;2022-08-25T13:26:41;100730.78;;;35.84;26.31
29371;BME280;16357;52.188;7.838;2022-08-25T13:29:18;100734.06;;;35.86;26.21
29371;BME280;16357;52.188;7.838;2022-08-25T13:32:05;100727.84;;;35.89;26.05
29371;BME280;16357;52.188;7.838;2022-08-25T13:34:39;100726.19;;;35.88;25.60
29371;BME280;16357;52.188;7.838;2022-08-25T13:37:22;100730.13;;;35.87;25.44
29371;BME280;16357;52.188;7.838;2022-08-25T13:42:42;100722.06;;;35.86;26.14
29371;BME280;16357;52.188;7.838;2022-08-25T13:45:23;100717.31;;;35.86;25.66
29371;BME280;16357;52.188;7.838;2022-08-25T13:47:50;100714.84;;;35.85;25.80
29371;BME280;16357;52.188;7.838;2022-08-25T13:52:54;100713.19;;;35.83;25.49
29371;BME280;16357;52.188;7.838;2022-08-25T13:56:08;100707.13;;;35.81;25.41
29371;BME280;16357;52.188;7.838;2022-08-25T13:58:23;100703.84;;;35.79;26.11
29371;BME280;16357;52.188;7.838;2022-08-25T14:01:20;100703.34;;;35.77;25.81
29371;BME280;16357;52.188;7.838;2022-08-25T14:09:39;100684.78;;;35.90;25.24
29371;BME280;16357;52.188;7.838;2022-08-25T14:12:25;100688.72;;;35.98;25.39
29371;BME280;16357;52.188;7.838;2022-08-25T14:17:46;100686.13;;;36.10;25.55
29371;BME280;16357;52.188;7.838;2022-08-25T14:20:20;100681.19;;;36.16;25.70
29371;BME280;16357;52.188;7.838;2022-08-25T14:22:55;100681.03;;;36.21;25.10
29371;BME280;16357;52.188;7.838;2022-08-25T14:25:24;100670.00;;;36.24;25.11
29371;BME280;16357;52.188;7.838;2022-08-25T14:27:56;100667.03;;;36.30;24.93
29371;BME280;16357;52.188;7.838;2022-08-25T14:30:34;100660.78;;;36.33;25.08
29371;BME280;16357;52.188;7.838;2022-08-25T14:33:02;100667.66;;;36.35;24.75
29371;BME280;16357;52.188;7.838;2022-08-25T14:35:29;100664.56;;;36.37;24.30
29371;BME280;16357;52.188;7.838;2022-08-25T14:37:56;100662.56;;;36.37;24.29
29371;BME280;16357;52.188;7.838;2022-08-25T14:40:23;100653.84;;;36.39;24.17
29371;BME280;16357;52.188;7.838;2022-08-25T14:42:50;100655.50;;;36.40;24.19
29371;BME280;16357;52.188;7.838;2022-08-25T14:45:18;100660.41;;;36.43;24.47
29371;BME280;16357;52.188;7.838;2022-08-25T14:47:45;100648.56;;;36.46;24.32
29371;BME280;16357;52.188;7.838;2022-08-25T14:50:15;100654.34;;;36.50;24.33
29371;BME280;16357;52.188;7.838;2022-08-25T14:52:46;100651.19;;;36.51;24.31
29371;BME280;16357;52.188;7.838;2022-08-25T14:55:17;100655.81;;;36.56;24.41